createdAt,value
2022-08-09T00:00:21.251Z,5.53
2022-08-09T00:02:53.510Z,6.18
2022-08-09T00:06:19.335Z,5.45
2022-08-09T00:08:32.165Z,5.63
2022-08-09T00:11:24.987Z,6.43
2022-08-09T00:13:55.761Z,5.65
2022-08-09T00:16:36.602Z,6.18
2022-08-09T00:19:10.339Z,5.50
2022-08-09T00:21:55.568Z,6.00
2022-08-09T00:24:27.722Z,6.32
2022-08-09T00:27:00.280Z,5.47
2022-08-09T00:30:10.106Z,6.43
2022-08-09T00:32:26.690Z,5.00
2022-08-09T00:34:58.732Z,6.40
2022-08-09T00:37:30.318Z,5.32
2022-08-09T00:40:12.431Z,5.53
2022-08-09T00:44:15.501Z,5.88
2022-08-09T00:45:50.646Z,5.47
2022-08-09T00:48:24.167Z,5.70
2022-08-09T00:50:56.641Z,5.40
2022-08-09T00:53:27.080Z,5.75
2022-08-09T00:56:04.750Z,6.78
2022-08-09T00:58:42.567Z,5.53
2022-08-09T01:01:23.898Z,6.65
2022-08-09T01:04:08.495Z,5.90
2022-08-09T01:06:54.274Z,6.05
2022-08-09T01:09:38.843Z,6.43
2022-08-09T01:14:56.815Z,5.45
2022-08-09T01:17:39.824Z,5.75
2022-08-09T01:20:12.849Z,6.00
2022-08-09T01:24:03.398Z,6.10
2022-08-09T01:26:28.466Z,5.63
2022-08-09T01:29:07.149Z,6.40
2022-08-09T01:32:31.214Z,5.78
2022-08-09T01:34:36.294Z,6.15
2022-08-09T01:37:12.221Z,6.20
2022-08-09T01:39:44.489Z,6.32
2022-08-09T01:42:15.436Z,6.90
2022-08-09T01:44:49.875Z,6.18
2022-08-09T01:47:21.967Z,6.30
2022-08-09T01:49:54.651Z,5.63
2022-08-09T01:52:27.978Z,7.45
2022-08-09T01:55:05.384Z,6.72
2022-08-09T01:57:45.878Z,5.40
2022-08-09T02:00:35.578Z,5.80
2022-08-09T02:03:13.570Z,7.60
2022-08-09T02:06:04.124Z,6.10
2022-08-09T02:08:57.907Z,6.82
2022-08-09T02:11:41.981Z,6.80
2022-08-09T02:14:25.157Z,6.95
2022-08-09T02:17:29.597Z,6.40
2022-08-09T02:19:49.793Z,6.32
2022-08-09T02:22:35.055Z,7.15
2022-08-09T02:25:17.329Z,7.38
2022-08-09T02:28:00.470Z,6.85
2022-08-09T02:30:41.418Z,6.60
2022-08-09T02:33:20.531Z,7.53
2022-08-09T02:36:02.729Z,6.60
2022-08-09T02:38:39.745Z,6.75
2022-08-09T02:41:24.412Z,7.00
2022-08-09T02:43:56.317Z,6.53
2022-08-09T02:46:29.622Z,7.15
2022-08-09T02:49:06.213Z,7.47
2022-08-09T02:51:40.805Z,6.05
2022-08-09T02:54:13.938Z,5.97
2022-08-09T02:56:51.572Z,7.03
2022-08-09T02:59:36.467Z,6.68
2022-08-09T03:02:12.113Z,6.55
2022-08-09T03:04:53.833Z,7.15
2022-08-09T03:07:25.521Z,7.20
2022-08-09T03:09:59.342Z,7.10
2022-08-09T03:12:37.436Z,7.47
2022-08-09T03:15:12.022Z,6.88
2022-08-09T03:17:42.618Z,7.57
2022-08-09T03:20:19.530Z,7.78
2022-08-09T03:22:58.253Z,7.90
2022-08-09T03:25:58.930Z,8.00
2022-08-09T03:28:28.895Z,6.70
2022-08-09T03:31:09.860Z,6.88
2022-08-09T03:33:53.247Z,7.28
2022-08-09T03:36:34.993Z,7.32
2022-08-09T03:39:06.698Z,7.90
2022-08-09T03:41:45.679Z,8.02
2022-08-09T03:44:21.760Z,7.75
2022-08-09T03:46:57.903Z,8.40
2022-08-09T03:49:35.726Z,6.97
2022-08-09T03:52:12.179Z,8.63
2022-08-09T03:54:43.153Z,8.32
2022-08-09T03:57:20.218Z,8.65
2022-08-09T04:00:00.795Z,7.72
2022-08-09T04:02:34.280Z,7.85
2022-08-09T04:05:26.941Z,8.90
2022-08-09T04:08:05.800Z,8.05
2022-08-09T04:10:38.141Z,8.13
2022-08-09T04:13:11.346Z,7.80
2022-08-09T04:16:20.516Z,8.43
2022-08-09T04:18:41.873Z,8.88
2022-08-09T04:21:12.371Z,9.65
2022-08-09T04:23:53.606Z,10.10
2022-08-09T04:26:24.753Z,9.25
2022-08-09T04:29:12.193Z,8.43
2022-08-09T04:31:46.846Z,9.10
2022-08-09T04:34:31.806Z,9.77
2022-08-09T04:37:03.214Z,8.40
2022-08-09T04:39:40.674Z,9.25
2022-08-09T04:42:11.117Z,10.27
2022-08-09T04:44:49.291Z,8.77
2022-08-09T04:47:19.994Z,9.80
2022-08-09T04:49:54.445Z,9.60
2022-08-09T04:52:27.640Z,9.88
2022-08-09T04:55:07.549Z,8.80
2022-08-09T05:00:36.071Z,9.15
2022-08-09T05:03:13.323Z,8.85
2022-08-09T05:06:07.076Z,8.68
2022-08-09T05:08:38.725Z,8.60
2022-08-09T05:11:17.598Z,9.10
2022-08-09T05:13:55.007Z,8.73
2022-08-09T05:16:31.663Z,8.68
2022-08-09T05:19:03.923Z,8.80
2022-08-09T05:21:46.986Z,9.45
2022-08-09T05:24:22.391Z,9.02
2022-08-09T05:26:56.925Z,8.90
2022-08-09T05:29:31.592Z,9.38
2022-08-09T05:32:08.632Z,8.45
2022-08-09T05:34:42.944Z,8.30
2022-08-09T05:37:19.371Z,8.02
2022-08-09T05:42:28.190Z,8.70
2022-08-09T05:45:09.428Z,8.45
2022-08-09T05:47:52.923Z,8.20
2022-08-09T05:50:50.757Z,7.20
2022-08-09T05:53:31.648Z,7.22
2022-08-09T05:56:10.559Z,7.55
2022-08-09T05:58:53.777Z,7.32
2022-08-09T06:01:34.228Z,7.70
2022-08-09T06:04:14.048Z,7.00
2022-08-09T06:06:49.941Z,7.15
2022-08-09T06:09:54.305Z,7.50
2022-08-09T06:12:19.805Z,7.85
2022-08-09T06:14:55.408Z,7.05
2022-08-09T06:17:39.215Z,7.20
2022-08-09T06:20:14.052Z,7.05
2022-08-09T06:22:51.063Z,7.32
2022-08-09T06:25:21.216Z,6.80
2022-08-09T06:27:54.635Z,7.80
2022-08-09T06:30:30.558Z,6.45
2022-08-09T06:33:29.942Z,7.30
2022-08-09T06:35:57.461Z,7.22
2022-08-09T06:38:32.251Z,6.13
2022-08-09T06:41:20.550Z,7.03
2022-08-09T06:43:52.982Z,5.75
2022-08-09T06:46:40.017Z,5.75
2022-08-09T06:49:11.127Z,6.40
2022-08-09T06:51:45.789Z,6.13
2022-08-09T06:54:20.421Z,5.80
2022-08-09T06:56:50.601Z,5.63
2022-08-09T07:00:54.636Z,5.75
2022-08-09T07:02:16.896Z,5.20
2022-08-09T07:04:46.915Z,5.75
2022-08-09T07:07:16.858Z,5.20
2022-08-09T07:10:22.294Z,4.15
2022-08-09T07:12:57.505Z,4.63
2022-08-09T07:18:32.237Z,4.63
2022-08-09T07:21:07.669Z,3.70
2022-08-09T07:23:46.628Z,4.00
2022-08-09T07:26:32.026Z,4.78
2022-08-09T07:29:38.113Z,4.63
2022-08-09T07:32:13.083Z,3.75
2022-08-09T07:37:52.709Z,3.58
2022-08-09T07:40:27.838Z,3.95
2022-08-09T07:43:16.661Z,3.90
2022-08-09T07:45:50.714Z,3.83
2022-08-09T07:48:25.851Z,3.28
2022-08-09T07:52:03.653Z,3.08
2022-08-09T07:54:07.375Z,3.22
2022-08-09T07:56:49.188Z,3.42
2022-08-09T07:59:33.996Z,3.47
2022-08-09T08:02:10.906Z,3.17
2022-08-09T08:04:54.936Z,3.60
2022-08-09T08:09:02.689Z,2.80
2022-08-09T08:10:22.736Z,2.72
2022-08-09T08:12:57.653Z,2.75
2022-08-09T08:15:28.252Z,3.00
2022-08-09T08:18:03.887Z,2.30
2022-08-09T08:20:36.282Z,2.75
2022-08-09T08:23:16.813Z,2.38
2022-08-09T08:26:06.645Z,2.40
2022-08-09T08:28:41.478Z,2.78
2022-08-09T08:31:15.474Z,2.22
2022-08-09T08:33:52.131Z,2.30
2022-08-09T08:36:30.620Z,2.50
2022-08-09T08:39:04.546Z,2.53
2022-08-09T08:41:50.896Z,2.25
2022-08-09T08:44:28.903Z,2.55
2022-08-09T08:47:04.902Z,2.55
2022-08-09T08:49:47.250Z,2.67
2022-08-09T08:55:23.342Z,2.40
2022-08-09T08:57:58.302Z,2.10
2022-08-09T09:00:35.074Z,2.30
2022-08-09T09:03:16.337Z,2.25
2022-08-09T09:06:05.104Z,2.90
2022-08-09T09:08:42.458Z,2.70
2022-08-09T09:11:19.840Z,2.40
2022-08-09T09:13:58.453Z,1.98
2022-08-09T09:16:35.992Z,2.40
2022-08-09T09:22:11.645Z,1.90
2022-08-09T09:24:44.272Z,2.33
2022-08-09T09:28:06.837Z,1.88
2022-08-09T09:30:33.043Z,1.70
2022-08-09T09:33:16.322Z,1.92
2022-08-09T09:36:02.355Z,2.17
2022-08-09T09:38:50.904Z,2.00
2022-08-09T09:41:49.216Z,1.70
2022-08-09T09:44:31.586Z,2.10
2022-08-09T09:47:13.503Z,2.10
2022-08-09T09:50:14.496Z,1.73
2022-08-09T09:52:56.084Z,2.13
2022-08-09T09:55:42.997Z,1.88
2022-08-09T09:58:28.578Z,2.13
2022-08-09T10:01:06.316Z,1.75
2022-08-09T10:04:00.141Z,2.08
2022-08-09T10:06:34.069Z,2.03
2022-08-09T10:09:21.614Z,2.05
2022-08-09T10:12:12.505Z,1.70
2022-08-09T10:14:56.190Z,1.40
2022-08-09T10:17:50.365Z,1.70
2022-08-09T10:20:33.053Z,1.75
2022-08-09T10:23:23.773Z,1.60
2022-08-09T10:26:07.886Z,1.65
2022-08-09T10:28:45.410Z,1.55
2022-08-09T10:34:32.441Z,1.50
2022-08-09T10:37:04.603Z,1.55
2022-08-09T10:39:49.496Z,1.55
2022-08-09T10:42:27.187Z,1.73
2022-08-09T10:45:11.763Z,1.40
2022-08-09T10:48:26.001Z,1.58
2022-08-09T10:51:09.937Z,1.58
2022-08-09T10:53:54.165Z,1.45
2022-08-09T10:56:28.384Z,1.42
2022-08-09T10:59:05.212Z,1.67
2022-08-09T11:03:10.881Z,1.95
2022-08-09T11:04:50.459Z,1.70
2022-08-09T11:07:56.703Z,1.40
2022-08-09T11:11:00.679Z,1.60
2022-08-09T11:13:49.826Z,1.58
2022-08-09T11:16:40.967Z,1.70
2022-08-09T11:19:11.928Z,1.70
2022-08-09T11:22:16.719Z,1.60
2022-08-09T11:25:12.266Z,1.70
2022-08-09T11:28:02.450Z,1.50
2022-08-09T11:30:39.271Z,1.83
2022-08-09T11:33:36.891Z,1.50
2022-08-09T11:36:09.562Z,2.17
2022-08-09T11:38:44.899Z,1.90
2022-08-09T11:41:40.767Z,2.10
2022-08-09T11:44:11.779Z,1.77
2022-08-09T11:46:57.716Z,1.88
2022-08-09T11:50:56.228Z,2.17
2022-08-09T11:54:01.210Z,1.77
2022-08-09T11:56:47.720Z,1.83
2022-08-09T11:59:33.914Z,1.90
2022-08-09T12:02:17.154Z,1.98
2022-08-09T12:04:58.940Z,2.17
2022-08-09T12:07:41.979Z,2.55
2022-08-09T12:10:14.370Z,2.05
2022-08-09T12:14:08.219Z,2.00
2022-08-09T12:16:11.820Z,2.28
2022-08-09T12:19:03.250Z,2.30
2022-08-09T12:21:38.887Z,1.88
2022-08-09T12:24:27.154Z,1.85
2022-08-09T12:29:13.736Z,2.47
2022-08-09T12:30:29.929Z,2.90
2022-08-09T12:33:03.982Z,2.40
2022-08-09T12:35:40.009Z,2.08
2022-08-09T12:38:37.875Z,2.17
2022-08-09T12:41:09.122Z,2.35
2022-08-09T12:44:06.660Z,2.05
2022-08-09T12:46:31.182Z,2.10
2022-08-09T12:49:09.519Z,2.00
2022-08-09T12:52:00.265Z,2.30
2022-08-09T12:55:03.270Z,2.30
2022-08-09T12:57:47.318Z,2.20
2022-08-09T13:00:25.470Z,2.00
2022-08-09T13:03:03.439Z,1.90
2022-08-09T13:05:51.730Z,1.80
2022-08-09T13:08:40.004Z,1.65
2022-08-09T13:11:23.053Z,1.60
2022-08-09T13:14:42.181Z,1.75
2022-08-09T13:20:07.541Z,1.80
2022-08-09T13:23:00.258Z,1.50
2022-08-09T13:25:14.297Z,1.60
2022-08-09T13:27:54.413Z,1.73
2022-08-09T13:30:50.516Z,1.75
2022-08-09T13:33:35.878Z,2.07
2022-08-09T13:36:37.552Z,1.90
2022-08-09T13:41:46.128Z,1.90
2022-08-09T13:42:12.716Z,2.10
2022-08-09T13:44:44.513Z,1.80
2022-08-09T13:47:33.120Z,1.80
2022-08-09T13:50:17.869Z,1.90
2022-08-09T13:52:49.696Z,1.73
2022-08-09T13:55:23.281Z,2.03
2022-08-09T13:57:59.370Z,1.80
2022-08-09T14:00:39.705Z,1.80
2022-08-09T14:04:02.602Z,2.00
2022-08-09T14:06:19.540Z,1.90
2022-08-09T14:08:56.699Z,1.75
2022-08-09T14:11:46.899Z,1.83
2022-08-09T14:14:26.297Z,1.67
2022-08-09T14:16:57.825Z,1.75
2022-08-09T14:19:33.218Z,2.10
2022-08-09T14:22:04.274Z,2.10
2022-08-09T14:24:39.631Z,1.90
2022-08-09T14:27:29.366Z,1.65
2022-08-09T14:30:37.385Z,1.80
2022-08-09T14:32:56.955Z,1.80
2022-08-09T14:35:28.281Z,1.73
2022-08-09T14:38:18.110Z,1.77
2022-08-09T14:41:02.276Z,1.83
2022-08-09T14:43:47.650Z,2.65
2022-08-09T14:46:58.753Z,2.10
2022-08-09T14:49:15.323Z,2.00
2022-08-09T14:51:46.717Z,1.77
2022-08-09T14:54:22.100Z,1.73
2022-08-09T14:56:57.684Z,1.70
2022-08-09T14:59:38.592Z,1.92
2022-08-09T15:02:11.094Z,1.80
2022-08-09T15:07:13.661Z,1.90
2022-08-09T15:10:07.905Z,1.90
2022-08-09T15:12:36.862Z,1.77
2022-08-09T15:15:14.562Z,1.70
2022-08-09T15:17:49.860Z,1.80
2022-08-09T15:21:56.916Z,1.90
2022-08-09T15:24:01.905Z,1.80
2022-08-09T15:26:18.449Z,2.53
2022-08-09T15:28:55.424Z,1.85
2022-08-09T15:31:41.421Z,1.75
2022-08-09T15:34:32.483Z,1.98
2022-08-09T15:37:37.204Z,1.77
2022-08-09T15:40:12.029Z,1.65
2022-08-09T15:42:46.608Z,1.50
2022-08-09T15:45:21.581Z,1.88
2022-08-09T15:48:06.468Z,1.65
2022-08-09T15:50:54.872Z,2.00
2022-08-09T15:54:03.175Z,2.03
2022-08-09T15:56:31.100Z,1.90
2022-08-09T15:59:02.797Z,1.98
2022-08-09T16:01:35.246Z,2.30
2022-08-09T16:06:44.662Z,1.88
2022-08-09T16:09:51.212Z,1.88
2022-08-09T16:12:13.068Z,2.17
2022-08-09T16:14:45.993Z,1.67
2022-08-09T16:17:17.220Z,2.00
2022-08-09T16:20:03.651Z,2.90
2022-08-09T16:22:48.568Z,7.78
2022-08-09T16:25:37.002Z,4.05
2022-08-09T16:28:11.989Z,2.15
2022-08-09T16:30:44.569Z,2.33
2022-08-09T16:33:23.947Z,1.90
2022-08-09T16:36:00.909Z,2.45
2022-08-09T16:38:37.983Z,2.30
2022-08-09T16:41:08.515Z,2.70
2022-08-09T16:43:46.606Z,2.20
2022-08-09T16:46:18.655Z,2.60
2022-08-09T16:49:05.914Z,2.05
2022-08-09T16:54:34.534Z,2.33
2022-08-09T16:57:06.231Z,2.40
2022-08-09T16:59:44.075Z,2.00
2022-08-09T17:02:23.155Z,2.03
2022-08-09T17:04:53.360Z,2.45
2022-08-09T17:08:46.840Z,3.55
2022-08-09T17:10:22.682Z,3.22
2022-08-09T17:12:55.364Z,2.22
2022-08-09T17:15:58.663Z,2.58
2022-08-09T17:18:18.625Z,3.00
2022-08-09T17:20:56.822Z,1.92
2022-08-09T17:24:20.141Z,2.00
2022-08-09T17:26:31.388Z,2.20
2022-08-09T17:29:05.323Z,2.58
2022-08-09T17:31:48.845Z,2.10
2022-08-09T17:35:03.972Z,2.22
2022-08-09T17:37:22.245Z,2.17
2022-08-09T17:39:57.718Z,1.90
2022-08-09T17:42:51.363Z,2.60
2022-08-09T17:45:27.154Z,2.22
2022-08-09T17:48:02.470Z,2.13
2022-08-09T17:50:36.780Z,2.30
2022-08-09T17:53:19.380Z,2.30
2022-08-09T17:56:03.336Z,2.60
2022-08-09T17:58:45.799Z,2.20
2022-08-09T18:01:23.137Z,2.70
2022-08-09T18:03:54.487Z,2.80
2022-08-09T18:06:32.147Z,2.63
2022-08-09T18:09:08.627Z,2.22
2022-08-09T18:11:47.037Z,2.60
2022-08-09T18:14:49.841Z,2.45
2022-08-09T18:18:03.730Z,2.47
2022-08-09T18:20:59.183Z,2.33
2022-08-09T18:24:08.894Z,2.08
2022-08-09T18:26:06.016Z,2.15
2022-08-09T18:30:40.885Z,2.17
2022-08-09T18:31:55.101Z,2.00
2022-08-09T18:34:36.094Z,2.15
2022-08-09T18:37:10.574Z,2.30
2022-08-09T18:39:57.722Z,2.30
2022-08-09T18:42:35.837Z,2.83
2022-08-09T18:46:44.718Z,2.05
2022-08-09T18:48:05.495Z,2.40
2022-08-09T18:50:42.472Z,2.20
2022-08-09T18:53:16.631Z,2.15
2022-08-09T18:55:57.072Z,2.22
2022-08-09T18:58:43.203Z,2.40
2022-08-09T19:01:18.149Z,2.40
2022-08-09T19:04:01.293Z,1.85
2022-08-09T19:06:50.649Z,2.58
2022-08-09T19:10:12.991Z,2.20
2022-08-09T19:12:12.949Z,2.28
2022-08-09T19:14:53.634Z,2.40
2022-08-09T19:17:31.174Z,2.38
2022-08-09T19:20:12.481Z,2.30
2022-08-09T19:22:50.399Z,2.20
2022-08-09T19:25:42.546Z,2.60
2022-08-09T19:28:17.951Z,2.08
2022-08-09T19:30:48.203Z,2.30
2022-08-09T19:33:24.289Z,2.45
2022-08-09T19:35:58.024Z,2.40
2022-08-09T19:38:30.215Z,2.42
2022-08-09T19:41:04.994Z,2.50
2022-08-09T19:44:01.530Z,2.80
2022-08-09T19:46:35.505Z,2.38
2022-08-09T19:50:08.928Z,2.38
2022-08-09T19:52:12.237Z,2.47
2022-08-09T19:54:45.163Z,2.55
2022-08-09T19:57:17.642Z,2.60
2022-08-09T19:59:59.252Z,2.83
2022-08-09T20:04:23.811Z,2.40
2022-08-09T20:05:32.998Z,2.38
2022-08-09T20:08:33.532Z,2.60
2022-08-09T20:11:12.557Z,3.05
2022-08-09T20:13:53.895Z,2.70
2022-08-09T20:16:35.407Z,2.90
2022-08-09T20:19:47.517Z,3.08
2022-08-09T20:22:09.740Z,2.83
2022-08-09T20:24:40.957Z,2.85
2022-08-09T20:27:11.675Z,2.67
2022-08-09T20:29:44.047Z,2.72
2022-08-09T20:32:30.461Z,2.70
2022-08-09T20:35:04.012Z,3.10
2022-08-09T20:38:19.315Z,2.75
2022-08-09T20:40:30.370Z,3.17
2022-08-09T20:43:18.643Z,2.70
2022-08-09T20:46:33.450Z,2.67
2022-08-09T20:48:59.086Z,2.50
2022-08-09T20:51:29.700Z,2.75
2022-08-09T20:54:18.110Z,2.78
2022-08-09T20:56:53.462Z,3.00
2022-08-09T21:00:19.493Z,2.70
2022-08-09T21:02:18.662Z,2.88
2022-08-09T21:08:00.166Z,2.50
2022-08-09T21:10:38.922Z,2.80
2022-08-09T21:13:12.381Z,2.90
2022-08-09T21:15:51.981Z,2.80
2022-08-09T21:18:27.637Z,2.33
2022-08-09T21:21:00.653Z,2.42
2022-08-09T21:23:51.393Z,2.90
2022-08-09T21:26:24.558Z,2.65
2022-08-09T21:28:57.974Z,2.60
2022-08-09T21:31:48.748Z,2.47
2022-08-09T21:34:29.254Z,2.90
2022-08-09T21:37:00.266Z,2.40
2022-08-09T21:39:42.023Z,2.70
2022-08-09T21:42:16.023Z,2.47
2022-08-09T21:44:46.519Z,2.42
2022-08-09T21:47:18.552Z,2.90
2022-08-09T21:52:35.568Z,2.67
2022-08-09T21:55:08.190Z,2.65
2022-08-09T21:57:59.063Z,2.50
2022-08-09T22:00:35.380Z,2.50
2022-08-09T22:03:19.771Z,2.85
2022-08-09T22:06:03.029Z,3.00
2022-08-09T22:08:35.709Z,2.85
2022-08-09T22:12:05.292Z,3.25
2022-08-09T22:14:02.784Z,2.60
2022-08-09T22:16:37.481Z,3.08
2022-08-09T22:19:23.812Z,2.60
2022-08-09T22:22:00.327Z,2.70
2022-08-09T22:24:35.696Z,3.15
2022-08-09T22:27:08.418Z,2.88
2022-08-09T22:29:46.441Z,2.90
2022-08-09T22:32:30.303Z,3.00
2022-08-09T22:35:06.654Z,2.70
2022-08-09T22:38:06.754Z,2.80
2022-08-09T22:40:40.665Z,2.70
2022-08-09T22:43:50.698Z,2.63
2022-08-09T22:48:16.877Z,3.10
2022-08-09T22:49:10.588Z,2.60
2022-08-09T22:51:49.469Z,3.15
2022-08-09T22:54:34.040Z,2.53
2022-08-09T22:57:06.883Z,2.90
2022-08-09T22:59:55.193Z,2.92
2022-08-09T23:02:35.896Z,2.42
2022-08-09T23:05:09.484Z,2.78
2022-08-09T23:08:27.284Z,2.58
2022-08-09T23:10:43.971Z,2.60
2022-08-09T23:13:13.958Z,2.88
2022-08-09T23:16:02.621Z,2.50
2022-08-09T23:18:36.518Z,2.70
2022-08-09T23:21:06.469Z,2.72
2022-08-09T23:23:37.179Z,2.63
2022-08-09T23:26:07.558Z,3.60
2022-08-09T23:28:40.525Z,2.80
2022-08-09T23:31:10.627Z,2.63
2022-08-09T23:33:43.185Z,2.97
2022-08-09T23:36:13.984Z,2.40
2022-08-09T23:38:48.868Z,2.55
2022-08-09T23:41:29.087Z,2.50
2022-08-09T23:44:03.754Z,2.67
2022-08-09T23:46:35.535Z,2.85
2022-08-09T23:49:09.642Z,3.00
2022-08-09T23:51:39.459Z,2.80
2022-08-09T23:54:09.751Z,2.50
2022-08-09T23:56:54.525Z,2.75
2022-08-09T23:59:46.939Z,2.50
